sensor_id;sensor_type;location;lat;lon;timestamp;P1;durP1;ratioP1;P2;durP2;ratioP2
71046;SDS011;58703;48.978;8.982;2022-12-17T00:01:24;33.03;;;17.52;;
71046;SDS011;58703;48.978;8.982;2022-12-17T00:04:08;39.10;;;16.20;;
71046;SDS011;58703;48.978;8.982;2022-12-17T00:06:52;39.00;;;18.25;;
71046;SDS011;58703;48.978;8.982;2022-12-17T00:09:36;41.30;;;18.52;;
71046;SDS011;58703;48.978;8.982;2022-12-17T00:12:20;43.25;;;17.65;;
71046;SDS011;58703;48.978;8.982;2022-12-17T00:15:04;43.42;;;19.17;;
71046;SDS011;58703;48.978;8.982;2022-12-17T00:17:48;34.13;;;15.95;;
71046;SDS011;58703;48.978;8.982;2022-12-17T00:20:33;36.30;;;18.30;;
71046;SDS011;58703;48.978;8.982;2022-12-17T00:23:17;31.05;;;15.30;;
71046;SDS011;58703;48.978;8.982;2022-12-17T00:26:01;39.35;;;18.50;;
71046;SDS011;58703;48.978;8.982;2022-12-17T00:28:45;38.50;;;18.42;;
71046;SDS011;58703;48.978;8.982;2022-12-17T00:31:29;30.20;;;14.93;;
71046;SDS011;58703;48.978;8.982;2022-12-17T00:34:13;32.92;;;17.73;;
71046;SDS011;58703;48.978;8.982;2022-12-17T00:36:58;31.70;;;16.90;;
71046;SDS011;58703;48.978;8.982;2022-12-17T00:39:43;37.00;;;17.25;;
71046;SDS011;58703;48.978;8.982;2022-12-17T00:42:27;30.73;;;14.75;;
71046;SDS011;58703;48.978;8.982;2022-12-17T00:45:12;34.10;;;16.00;;
71046;SDS011;58703;48.978;8.982;2022-12-17T00:47:56;46.22;;;18.30;;
71046;SDS011;58703;48.978;8.982;2022-12-17T00:50:40;37.88;;;15.23;;
71046;SDS011;58703;48.978;8.982;2022-12-17T00:53:25;39.67;;;17.13;;
71046;SDS011;58703;48.978;8.982;2022-12-17T00:56:09;35.30;;;15.77;;
71046;SDS011;58703;48.978;8.982;2022-12-17T00:58:53;30.30;;;14.55;;
71046;SDS011;58703;48.978;8.982;2022-12-17T01:01:41;30.15;;;14.05;;
71046;SDS011;58703;48.978;8.982;2022-12-17T01:04:26;34.10;;;15.98;;
71046;SDS011;58703;48.978;8.982;2022-12-17T01:07:12;33.00;;;13.93;;
71046;SDS011;58703;48.978;8.982;2022-12-17T01:09:57;36.40;;;16.10;;
71046;SDS011;58703;48.978;8.982;2022-12-17T01:12:41;27.13;;;12.85;;
71046;SDS011;58703;48.978;8.982;2022-12-17T01:15:26;35.28;;;14.52;;
71046;SDS011;58703;48.978;8.982;2022-12-17T01:18:16;31.08;;;13.57;;
71046;SDS011;58703;48.978;8.982;2022-12-17T01:21:02;26.40;;;12.80;;
71046;SDS011;58703;48.978;8.982;2022-12-17T01:23:48;28.80;;;12.38;;
71046;SDS011;58703;48.978;8.982;2022-12-17T01:26:44;28.17;;;12.52;;
71046;SDS011;58703;48.978;8.982;2022-12-17T01:29:30;26.73;;;10.57;;
71046;SDS011;58703;48.978;8.982;2022-12-17T01:32:15;23.17;;;11.60;;
71046;SDS011;58703;48.978;8.982;2022-12-17T01:35:01;20.38;;;10.38;;
71046;SDS011;58703;48.978;8.982;2022-12-17T01:37:48;19.02;;;9.82;;
71046;SDS011;58703;48.978;8.982;2022-12-17T01:40:34;22.95;;;10.77;;
71046;SDS011;58703;48.978;8.982;2022-12-17T01:43:32;22.02;;;11.07;;
71046;SDS011;58703;48.978;8.982;2022-12-17T01:46:17;24.80;;;12.15;;
71046;SDS011;58703;48.978;8.982;2022-12-17T01:49:02;28.48;;;12.50;;
71046;SDS011;58703;48.978;8.982;2022-12-17T01:51:47;25.77;;;12.00;;
71046;SDS011;58703;48.978;8.982;2022-12-17T01:54:36;23.25;;;11.73;;
71046;SDS011;58703;48.978;8.982;2022-12-17T01:57:22;22.35;;;9.90;;
71046;SDS011;58703;48.978;8.982;2022-12-17T02:00:08;21.38;;;9.15;;
71046;SDS011;58703;48.978;8.982;2022-12-17T02:02:56;25.88;;;10.45;;
71046;SDS011;58703;48.978;8.982;2022-12-17T02:05:42;23.92;;;11.25;;
71046;SDS011;58703;48.978;8.982;2022-12-17T02:15:05;22.27;;;9.18;;
71046;SDS011;58703;48.978;8.982;2022-12-17T02:17:57;20.05;;;10.45;;
71046;SDS011;58703;48.978;8.982;2022-12-17T02:20:48;21.83;;;9.10;;
71046;SDS011;58703;48.978;8.982;2022-12-17T02:23:38;17.75;;;9.80;;
71046;SDS011;58703;48.978;8.982;2022-12-17T02:26:41;20.00;;;9.55;;
71046;SDS011;58703;48.978;8.982;2022-12-17T02:29:29;19.98;;;9.45;;
71046;SDS011;58703;48.978;8.982;2022-12-17T02:32:18;22.17;;;9.35;;
71046;SDS011;58703;48.978;8.982;2022-12-17T02:35:03;18.35;;;8.68;;
71046;SDS011;58703;48.978;8.982;2022-12-17T02:37:54;19.05;;;8.23;;
71046;SDS011;58703;48.978;8.982;2022-12-17T02:40:40;22.33;;;9.57;;
71046;SDS011;58703;48.978;8.982;2022-12-17T02:43:25;22.20;;;9.50;;
71046;SDS011;58703;48.978;8.982;2022-12-17T02:46:10;26.02;;;11.05;;
71046;SDS011;58703;48.978;8.982;2022-12-17T02:48:54;21.20;;;11.25;;
71046;SDS011;58703;48.978;8.982;2022-12-17T02:51:39;25.60;;;11.68;;
71046;SDS011;58703;48.978;8.982;2022-12-17T02:54:32;24.85;;;11.45;;
71046;SDS011;58703;48.978;8.982;2022-12-17T02:57:18;34.08;;;11.07;;
71046;SDS011;58703;48.978;8.982;2022-12-17T03:00:04;32.78;;;12.60;;
71046;SDS011;58703;48.978;8.982;2022-12-17T03:02:50;37.10;;;13.50;;
71046;SDS011;58703;48.978;8.982;2022-12-17T03:05:34;38.92;;;12.27;;
71046;SDS011;58703;48.978;8.982;2022-12-17T03:08:18;31.35;;;11.63;;
71046;SDS011;58703;48.978;8.982;2022-12-17T03:11:02;35.60;;;13.80;;
71046;SDS011;58703;48.978;8.982;2022-12-17T03:13:46;28.80;;;12.07;;
71046;SDS011;58703;48.978;8.982;2022-12-17T03:16:32;29.15;;;13.20;;
71046;SDS011;58703;48.978;8.982;2022-12-17T03:19:19;42.03;;;13.73;;
71046;SDS011;58703;48.978;8.982;2022-12-17T03:22:04;41.83;;;15.00;;
71046;SDS011;58703;48.978;8.982;2022-12-17T03:24:48;33.60;;;13.82;;
71046;SDS011;58703;48.978;8.982;2022-12-17T03:27:32;47.40;;;14.45;;
71046;SDS011;58703;48.978;8.982;2022-12-17T03:30:17;47.60;;;16.40;;
71046;SDS011;58703;48.978;8.982;2022-12-17T03:33:01;48.17;;;13.75;;
71046;SDS011;58703;48.978;8.982;2022-12-17T03:35:45;48.38;;;14.95;;
71046;SDS011;58703;48.978;8.982;2022-12-17T03:38:29;46.50;;;15.70;;
71046;SDS011;58703;48.978;8.982;2022-12-17T03:41:13;36.03;;;14.68;;
71046;SDS011;58703;48.978;8.982;2022-12-17T03:43:58;45.60;;;15.55;;
71046;SDS011;58703;48.978;8.982;2022-12-17T03:46:42;34.30;;;13.73;;
71046;SDS011;58703;48.978;8.982;2022-12-17T03:49:27;33.72;;;14.65;;
71046;SDS011;58703;48.978;8.982;2022-12-17T03:52:21;31.85;;;13.43;;
71046;SDS011;58703;48.978;8.982;2022-12-17T03:55:05;40.05;;;13.55;;
71046;SDS011;58703;48.978;8.982;2022-12-17T03:57:49;34.88;;;12.93;;
71046;SDS011;58703;48.978;8.982;2022-12-17T04:00:34;38.75;;;13.30;;
71046;SDS011;58703;48.978;8.982;2022-12-17T04:03:19;38.67;;;11.63;;
71046;SDS011;58703;48.978;8.982;2022-12-17T04:06:04;37.63;;;14.27;;
71046;SDS011;58703;48.978;8.982;2022-12-17T04:08:48;35.42;;;11.27;;
71046;SDS011;58703;48.978;8.982;2022-12-17T04:11:32;27.98;;;10.43;;
71046;SDS011;58703;48.978;8.982;2022-12-17T04:14:16;36.03;;;14.10;;
71046;SDS011;58703;48.978;8.982;2022-12-17T04:17:02;34.63;;;13.38;;
71046;SDS011;58703;48.978;8.982;2022-12-17T04:19:46;26.75;;;11.52;;
71046;SDS011;58703;48.978;8.982;2022-12-17T04:22:30;45.72;;;13.13;;
71046;SDS011;58703;48.978;8.982;2022-12-17T04:25:13;35.88;;;12.68;;
71046;SDS011;58703;48.978;8.982;2022-12-17T04:27:57;38.30;;;12.60;;
71046;SDS011;58703;48.978;8.982;2022-12-17T04:30:41;30.88;;;12.60;;
71046;SDS011;58703;48.978;8.982;2022-12-17T04:33:26;33.88;;;12.63;;
71046;SDS011;58703;48.978;8.982;2022-12-17T04:36:10;30.17;;;11.27;;
71046;SDS011;58703;48.978;8.982;2022-12-17T04:39:14;31.02;;;12.13;;
71046;SDS011;58703;48.978;8.982;2022-12-17T04:41:58;27.75;;;11.48;;
71046;SDS011;58703;48.978;8.982;2022-12-17T04:44:43;37.97;;;12.52;;
71046;SDS011;58703;48.978;8.982;2022-12-17T04:47:28;33.65;;;12.27;;
71046;SDS011;58703;48.978;8.982;2022-12-17T04:50:12;30.77;;;11.18;;
71046;SDS011;58703;48.978;8.982;2022-12-17T04:53:03;31.80;;;10.73;;
71046;SDS011;58703;48.978;8.982;2022-12-17T04:55:48;29.05;;;11.80;;
71046;SDS011;58703;48.978;8.982;2022-12-17T04:58:33;26.75;;;10.43;;
71046;SDS011;58703;48.978;8.982;2022-12-17T05:01:17;29.45;;;10.88;;
71046;SDS011;58703;48.978;8.982;2022-12-17T05:04:03;33.90;;;11.80;;
71046;SDS011;58703;48.978;8.982;2022-12-17T05:06:48;32.03;;;12.38;;
71046;SDS011;58703;48.978;8.982;2022-12-17T05:09:32;23.45;;;10.70;;
71046;SDS011;58703;48.978;8.982;2022-12-17T05:12:16;34.80;;;12.07;;
71046;SDS011;58703;48.978;8.982;2022-12-17T05:15:00;33.28;;;12.18;;
71046;SDS011;58703;48.978;8.982;2022-12-17T05:17:45;45.72;;;14.18;;
71046;SDS011;58703;48.978;8.982;2022-12-17T05:20:30;35.45;;;13.10;;
71046;SDS011;58703;48.978;8.982;2022-12-17T05:23:15;32.30;;;10.75;;
71046;SDS011;58703;48.978;8.982;2022-12-17T05:26:05;36.10;;;11.82;;
71046;SDS011;58703;48.978;8.982;2022-12-17T05:28:52;36.05;;;11.60;;
71046;SDS011;58703;48.978;8.982;2022-12-17T05:31:38;33.88;;;12.05;;
71046;SDS011;58703;48.978;8.982;2022-12-17T05:34:23;30.58;;;11.48;;
71046;SDS011;58703;48.978;8.982;2022-12-17T05:37:08;36.95;;;12.43;;
71046;SDS011;58703;48.978;8.982;2022-12-17T05:39:52;32.70;;;12.98;;
71046;SDS011;58703;48.978;8.982;2022-12-17T05:42:36;36.05;;;12.40;;
71046;SDS011;58703;48.978;8.982;2022-12-17T05:45:20;33.05;;;11.07;;
71046;SDS011;58703;48.978;8.982;2022-12-17T05:48:04;27.35;;;10.40;;
71046;SDS011;58703;48.978;8.982;2022-12-17T05:50:49;35.67;;;11.90;;
71046;SDS011;58703;48.978;8.982;2022-12-17T05:53:34;32.58;;;11.88;;
71046;SDS011;58703;48.978;8.982;2022-12-17T05:56:18;36.40;;;12.00;;
71046;SDS011;58703;48.978;8.982;2022-12-17T05:59:02;35.80;;;11.88;;
71046;SDS011;58703;48.978;8.982;2022-12-17T06:01:46;31.52;;;12.90;;
71046;SDS011;58703;48.978;8.982;2022-12-17T06:04:41;31.67;;;11.68;;
71046;SDS011;58703;48.978;8.982;2022-12-17T06:07:26;34.38;;;13.20;;
71046;SDS011;58703;48.978;8.982;2022-12-17T06:10:11;39.40;;;13.82;;
71046;SDS011;58703;48.978;8.982;2022-12-17T06:12:56;42.90;;;13.88;;
71046;SDS011;58703;48.978;8.982;2022-12-17T06:15:40;30.02;;;12.90;;
71046;SDS011;58703;48.978;8.982;2022-12-17T06:18:24;42.72;;;14.05;;
71046;SDS011;58703;48.978;8.982;2022-12-17T06:21:09;36.28;;;12.52;;
71046;SDS011;58703;48.978;8.982;2022-12-17T06:23:54;46.17;;;13.40;;
71046;SDS011;58703;48.978;8.982;2022-12-17T06:26:39;34.80;;;11.57;;
71046;SDS011;58703;48.978;8.982;2022-12-17T06:29:24;40.03;;;13.57;;
71046;SDS011;58703;48.978;8.982;2022-12-17T06:32:07;36.97;;;12.45;;
71046;SDS011;58703;48.978;8.982;2022-12-17T06:34:51;21.70;;;6.70;;
71046;SDS011;58703;48.978;8.982;2022-12-17T06:37:35;45.03;;;13.82;;
71046;SDS011;58703;48.978;8.982;2022-12-17T06:40:20;45.13;;;12.70;;
71046;SDS011;58703;48.978;8.982;2022-12-17T06:43:04;32.05;;;12.43;;
71046;SDS011;58703;48.978;8.982;2022-12-17T06:45:50;34.03;;;12.13;;
71046;SDS011;58703;48.978;8.982;2022-12-17T06:48:34;41.88;;;13.85;;
71046;SDS011;58703;48.978;8.982;2022-12-17T06:51:18;34.40;;;13.32;;
71046;SDS011;58703;48.978;8.982;2022-12-17T06:54:04;49.65;;;10.88;;
71046;SDS011;58703;48.978;8.982;2022-12-17T06:56:47;48.03;;;12.90;;
71046;SDS011;58703;48.978;8.982;2022-12-17T06:59:32;43.92;;;13.95;;
71046;SDS011;58703;48.978;8.982;2022-12-17T07:02:33;15.35;;;7.25;;
71046;SDS011;58703;48.978;8.982;2022-12-17T07:05:17;23.70;;;9.68;;
71046;SDS011;58703;48.978;8.982;2022-12-17T07:08:01;40.92;;;13.85;;
71046;SDS011;58703;48.978;8.982;2022-12-17T07:10:46;48.92;;;13.68;;
71046;SDS011;58703;48.978;8.982;2022-12-17T07:13:30;33.35;;;13.43;;
71046;SDS011;58703;48.978;8.982;2022-12-17T07:16:14;30.88;;;14.02;;
71046;SDS011;58703;48.978;8.982;2022-12-17T07:18:58;49.72;;;18.98;;
71046;SDS011;58703;48.978;8.982;2022-12-17T07:21:43;35.28;;;14.65;;
71046;SDS011;58703;48.978;8.982;2022-12-17T07:24:27;24.75;;;8.98;;
71046;SDS011;58703;48.978;8.982;2022-12-17T07:27:11;11.52;;;4.28;;
71046;SDS011;58703;48.978;8.982;2022-12-17T07:29:55;46.65;;;12.25;;
71046;SDS011;58703;48.978;8.982;2022-12-17T07:32:39;31.88;;;11.93;;
71046;SDS011;58703;48.978;8.982;2022-12-17T07:35:23;24.65;;;8.15;;
71046;SDS011;58703;48.978;8.982;2022-12-17T07:38:08;30.15;;;8.60;;
71046;SDS011;58703;48.978;8.982;2022-12-17T07:40:53;40.65;;;13.63;;
71046;SDS011;58703;48.978;8.982;2022-12-17T07:43:37;34.80;;;13.43;;
71046;SDS011;58703;48.978;8.982;2022-12-17T07:46:21;40.85;;;14.40;;
71046;SDS011;58703;48.978;8.982;2022-12-17T07:49:06;41.03;;;13.45;;
71046;SDS011;58703;48.978;8.982;2022-12-17T07:51:50;31.95;;;13.95;;
71046;SDS011;58703;48.978;8.982;2022-12-17T07:54:35;32.20;;;11.82;;
71046;SDS011;58703;48.978;8.982;2022-12-17T07:57:19;37.50;;;14.40;;
71046;SDS011;58703;48.978;8.982;2022-12-17T08:00:03;48.25;;;14.23;;
71046;SDS011;58703;48.978;8.982;2022-12-17T08:03:05;33.60;;;12.95;;
71046;SDS011;58703;48.978;8.982;2022-12-17T08:05:49;19.35;;;8.25;;
71046;SDS011;58703;48.978;8.982;2022-12-17T08:08:33;14.50;;;7.30;;
71046;SDS011;58703;48.978;8.982;2022-12-17T08:11:17;43.30;;;14.45;;
71046;SDS011;58703;48.978;8.982;2022-12-17T08:14:01;36.85;;;11.40;;
71046;SDS011;58703;48.978;8.982;2022-12-17T08:16:46;34.28;;;11.95;;
71046;SDS011;58703;48.978;8.982;2022-12-17T08:19:30;40.17;;;14.65;;
71046;SDS011;58703;48.978;8.982;2022-12-17T08:22:14;38.20;;;14.07;;
71046;SDS011;58703;48.978;8.982;2022-12-17T08:24:58;37.78;;;14.90;;
71046;SDS011;58703;48.978;8.982;2022-12-17T08:27:42;46.40;;;14.05;;
71046;SDS011;58703;48.978;8.982;2022-12-17T08:30:26;12.65;;;4.88;;
71046;SDS011;58703;48.978;8.982;2022-12-17T08:33:10;33.13;;;11.40;;
71046;SDS011;58703;48.978;8.982;2022-12-17T08:35:54;18.38;;;6.82;;
71046;SDS011;58703;48.978;8.982;2022-12-17T08:38:40;39.80;;;15.10;;
71046;SDS011;58703;48.978;8.982;2022-12-17T08:41:25;40.65;;;15.43;;
71046;SDS011;58703;48.978;8.982;2022-12-17T08:44:10;51.05;;;17.77;;
71046;SDS011;58703;48.978;8.982;2022-12-17T08:46:54;47.83;;;16.35;;
71046;SDS011;58703;48.978;8.982;2022-12-17T08:49:38;33.33;;;12.98;;
71046;SDS011;58703;48.978;8.982;2022-12-17T08:52:22;41.08;;;13.48;;
71046;SDS011;58703;48.978;8.982;2022-12-17T08:55:06;23.02;;;10.82;;
71046;SDS011;58703;48.978;8.982;2022-12-17T08:57:51;17.90;;;8.32;;
71046;SDS011;58703;48.978;8.982;2022-12-17T09:00:40;43.08;;;15.07;;
71046;SDS011;58703;48.978;8.982;2022-12-17T09:03:24;37.30;;;13.15;;
71046;SDS011;58703;48.978;8.982;2022-12-17T09:06:08;38.88;;;14.27;;
71046;SDS011;58703;48.978;8.982;2022-12-17T09:08:53;39.85;;;15.73;;
71046;SDS011;58703;48.978;8.982;2022-12-17T09:11:37;54.80;;;18.35;;
71046;SDS011;58703;48.978;8.982;2022-12-17T09:14:21;51.95;;;20.13;;
71046;SDS011;58703;48.978;8.982;2022-12-17T09:17:19;38.20;;;14.43;;
71046;SDS011;58703;48.978;8.982;2022-12-17T09:20:03;25.65;;;13.32;;
71046;SDS011;58703;48.978;8.982;2022-12-17T09:22:48;36.15;;;14.15;;
71046;SDS011;58703;48.978;8.982;2022-12-17T09:25:32;42.45;;;16.67;;
71046;SDS011;58703;48.978;8.982;2022-12-17T09:28:16;22.42;;;11.90;;
71046;SDS011;58703;48.978;8.982;2022-12-17T09:31:00;43.33;;;16.13;;
71046;SDS011;58703;48.978;8.982;2022-12-17T09:33:44;49.38;;;19.80;;
71046;SDS011;58703;48.978;8.982;2022-12-17T09:36:29;53.13;;;19.20;;
71046;SDS011;58703;48.978;8.982;2022-12-17T09:39:13;58.50;;;21.17;;
71046;SDS011;58703;48.978;8.982;2022-12-17T09:42:20;52.17;;;21.25;;
71046;SDS011;58703;48.978;8.982;2022-12-17T09:45:12;47.80;;;19.65;;
71046;SDS011;58703;48.978;8.982;2022-12-17T09:51:23;21.48;;;10.35;;
71046;SDS011;58703;48.978;8.982;2022-12-17T09:54:11;53.55;;;19.70;;
71046;SDS011;58703;48.978;8.982;2022-12-17T09:57:03;41.35;;;17.00;;
71046;SDS011;58703;48.978;8.982;2022-12-17T09:59:51;16.10;;;9.82;;
71046;SDS011;58703;48.978;8.982;2022-12-17T10:02:36;27.92;;;13.25;;
71046;SDS011;58703;48.978;8.982;2022-12-17T10:05:24;47.42;;;17.17;;
71046;SDS011;58703;48.978;8.982;2022-12-17T10:08:12;52.78;;;19.48;;
71046;SDS011;58703;48.978;8.982;2022-12-17T10:11:21;48.22;;;19.27;;
71046;SDS011;58703;48.978;8.982;2022-12-17T10:14:10;41.42;;;17.05;;
71046;SDS011;58703;48.978;8.982;2022-12-17T10:17:03;24.63;;;11.68;;
71046;SDS011;58703;48.978;8.982;2022-12-17T10:19:48;40.90;;;17.38;;
71046;SDS011;58703;48.978;8.982;2022-12-17T10:22:45;37.00;;;17.08;;
71046;SDS011;58703;48.978;8.982;2022-12-17T10:25:31;47.00;;;19.58;;
71046;SDS011;58703;48.978;8.982;2022-12-17T10:28:17;45.33;;;18.17;;
71046;SDS011;58703;48.978;8.982;2022-12-17T10:31:14;40.65;;;17.20;;
71046;SDS011;58703;48.978;8.982;2022-12-17T10:34:01;45.78;;;22.40;;
71046;SDS011;58703;48.978;8.982;2022-12-17T10:36:49;50.72;;;21.20;;
71046;SDS011;58703;48.978;8.982;2022-12-17T10:39:34;45.28;;;21.63;;
71046;SDS011;58703;48.978;8.982;2022-12-17T10:42:23;46.15;;;21.00;;
71046;SDS011;58703;48.978;8.982;2022-12-17T10:48:19;31.45;;;14.80;;
71046;SDS011;58703;48.978;8.982;2022-12-17T10:51:15;37.97;;;16.95;;
71046;SDS011;58703;48.978;8.982;2022-12-17T10:54:13;49.15;;;20.45;;
71046;SDS011;58703;48.978;8.982;2022-12-17T10:57:04;46.80;;;19.80;;
71046;SDS011;58703;48.978;8.982;2022-12-17T10:59:49;53.20;;;21.33;;
71046;SDS011;58703;48.978;8.982;2022-12-17T11:02:34;33.72;;;16.25;;
71046;SDS011;58703;48.978;8.982;2022-12-17T11:05:23;39.75;;;16.73;;
71046;SDS011;58703;48.978;8.982;2022-12-17T11:08:11;24.35;;;11.68;;
71046;SDS011;58703;48.978;8.982;2022-12-17T11:10:57;33.88;;;15.52;;
71046;SDS011;58703;48.978;8.982;2022-12-17T11:13:45;46.92;;;20.40;;
71046;SDS011;58703;48.978;8.982;2022-12-17T11:16:35;46.45;;;21.35;;
71046;SDS011;58703;48.978;8.982;2022-12-17T11:19:39;47.45;;;17.63;;
71046;SDS011;58703;48.978;8.982;2022-12-17T11:22:58;44.28;;;20.55;;
71046;SDS011;58703;48.978;8.982;2022-12-17T11:25:49;51.40;;;22.55;;
71046;SDS011;58703;48.978;8.982;2022-12-17T11:28:40;49.00;;;21.90;;
71046;SDS011;58703;48.978;8.982;2022-12-17T11:31:45;50.88;;;21.80;;
71046;SDS011;58703;48.978;8.982;2022-12-17T11:38:09;45.83;;;18.15;;
71046;SDS011;58703;48.978;8.982;2022-12-17T11:53:05;46.22;;;20.65;;
71046;SDS011;58703;48.978;8.982;2022-12-17T11:56:15;49.33;;;23.27;;
71046;SDS011;58703;48.978;8.982;2022-12-17T11:59:29;50.38;;;21.58;;
71046;SDS011;58703;48.978;8.982;2022-12-17T12:02:27;46.40;;;20.33;;
71046;SDS011;58703;48.978;8.982;2022-12-17T12:05:23;28.52;;;12.02;;
71046;SDS011;58703;48.978;8.982;2022-12-17T12:08:28;44.30;;;21.40;;
71046;SDS011;58703;48.978;8.982;2022-12-17T12:11:29;43.65;;;18.77;;
71046;SDS011;58703;48.978;8.982;2022-12-17T12:14:35;32.78;;;16.30;;
71046;SDS011;58703;48.978;8.982;2022-12-17T12:20:53;50.05;;;20.75;;
71046;SDS011;58703;48.978;8.982;2022-12-17T12:23:45;49.33;;;21.08;;
71046;SDS011;58703;48.978;8.982;2022-12-17T12:32:43;35.28;;;16.80;;
71046;SDS011;58703;48.978;8.982;2022-12-17T12:35:35;51.90;;;21.77;;
71046;SDS011;58703;48.978;8.982;2022-12-17T12:38:22;47.70;;;19.13;;
71046;SDS011;58703;48.978;8.982;2022-12-17T12:41:18;49.83;;;21.15;;
71046;SDS011;58703;48.978;8.982;2022-12-17T12:44:23;34.80;;;17.70;;
71046;SDS011;58703;48.978;8.982;2022-12-17T12:47:16;53.85;;;22.80;;
71046;SDS011;58703;48.978;8.982;2022-12-17T12:50:53;27.02;;;14.10;;
71046;SDS011;58703;48.978;8.982;2022-12-17T12:53:21;43.33;;;21.75;;
71046;SDS011;58703;48.978;8.982;2022-12-17T12:56:22;23.83;;;13.23;;
71046;SDS011;58703;48.978;8.982;2022-12-17T12:59:15;32.58;;;16.13;;
71046;SDS011;58703;48.978;8.982;2022-12-17T13:02:12;49.92;;;20.20;;
71046;SDS011;58703;48.978;8.982;2022-12-17T13:05:03;46.97;;;20.25;;
71046;SDS011;58703;48.978;8.982;2022-12-17T13:10:33;25.58;;;13.40;;
71046;SDS011;58703;48.978;8.982;2022-12-17T13:13:08;45.47;;;19.77;;
71046;SDS011;58703;48.978;8.982;2022-12-17T13:15:50;35.53;;;17.30;;
71046;SDS011;58703;48.978;8.982;2022-12-17T13:20:57;36.17;;;15.88;;
71046;SDS011;58703;48.978;8.982;2022-12-17T13:23:30;32.63;;;16.48;;
71046;SDS011;58703;48.978;8.982;2022-12-17T13:26:12;38.95;;;16.67;;
71046;SDS011;58703;48.978;8.982;2022-12-17T13:28:41;39.97;;;17.45;;
71046;SDS011;58703;48.978;8.982;2022-12-17T13:31:16;49.00;;;20.70;;
71046;SDS011;58703;48.978;8.982;2022-12-17T13:36:50;50.72;;;20.85;;
71046;SDS011;58703;48.978;8.982;2022-12-17T13:42:29;26.85;;;12.18;;
71046;SDS011;58703;48.978;8.982;2022-12-17T13:44:56;12.52;;;8.35;;
71046;SDS011;58703;48.978;8.982;2022-12-17T13:47:25;30.23;;;16.70;;
71046;SDS011;58703;48.978;8.982;2022-12-17T13:49:59;54.35;;;23.20;;
71046;SDS011;58703;48.978;8.982;2022-12-17T13:52:27;37.83;;;18.10;;
71046;SDS011;58703;48.978;8.982;2022-12-17T13:55:04;41.35;;;17.70;;
71046;SDS011;58703;48.978;8.982;2022-12-17T13:57:31;30.45;;;15.07;;
71046;SDS011;58703;48.978;8.982;2022-12-17T13:59:58;47.43;;;21.47;;
71046;SDS011;58703;48.978;8.982;2022-12-17T14:02:30;52.20;;;20.63;;
71046;SDS011;58703;48.978;8.982;2022-12-17T14:04:58;40.35;;;17.65;;
71046;SDS011;58703;48.978;8.982;2022-12-17T14:07:26;42.03;;;18.67;;
71046;SDS011;58703;48.978;8.982;2022-12-17T14:09:53;49.97;;;20.98;;
71046;SDS011;58703;48.978;8.982;2022-12-17T14:12:21;50.65;;;21.40;;
71046;SDS011;58703;48.978;8.982;2022-12-17T14:14:51;36.22;;;14.05;;
71046;SDS011;58703;48.978;8.982;2022-12-17T14:17:34;39.08;;;18.00;;
71046;SDS011;58703;48.978;8.982;2022-12-17T14:20:02;48.03;;;20.17;;
71046;SDS011;58703;48.978;8.982;2022-12-17T14:22:31;44.65;;;20.48;;
71046;SDS011;58703;48.978;8.982;2022-12-17T14:25:03;41.03;;;19.33;;
71046;SDS011;58703;48.978;8.982;2022-12-17T14:27:32;49.17;;;20.35;;
71046;SDS011;58703;48.978;8.982;2022-12-17T14:30:00;47.03;;;22.35;;
71046;SDS011;58703;48.978;8.982;2022-12-17T14:32:32;52.87;;;20.83;;
71046;SDS011;58703;48.978;8.982;2022-12-17T14:35:00;41.38;;;17.17;;
71046;SDS011;58703;48.978;8.982;2022-12-17T14:37:26;15.40;;;9.20;;
71046;SDS011;58703;48.978;8.982;2022-12-17T14:39:53;20.58;;;10.30;;
71046;SDS011;58703;48.978;8.982;2022-12-17T14:42:24;62.47;;;30.23;;
71046;SDS011;58703;48.978;8.982;2022-12-17T14:44:52;49.23;;;24.27;;
71046;SDS011;58703;48.978;8.982;2022-12-17T14:47:38;60.35;;;28.63;;
71046;SDS011;58703;48.978;8.982;2022-12-17T14:52:38;49.78;;;22.55;;
71046;SDS011;58703;48.978;8.982;2022-12-17T15:00:54;52.65;;;20.30;;
71046;SDS011;58703;48.978;8.982;2022-12-17T15:06:09;49.60;;;22.48;;
71046;SDS011;58703;48.978;8.982;2022-12-17T15:08:40;38.45;;;17.85;;
71046;SDS011;58703;48.978;8.982;2022-12-17T15:11:09;46.60;;;19.80;;
71046;SDS011;58703;48.978;8.982;2022-12-17T15:13:36;48.53;;;22.83;;
71046;SDS011;58703;48.978;8.982;2022-12-17T15:16:02;53.85;;;24.05;;
71046;SDS011;58703;48.978;8.982;2022-12-17T15:18:27;55.27;;;26.83;;
71046;SDS011;58703;48.978;8.982;2022-12-17T15:20:53;55.13;;;26.90;;
71046;SDS011;58703;48.978;8.982;2022-12-17T15:23:20;55.20;;;23.65;;
71046;SDS011;58703;48.978;8.982;2022-12-17T15:25:47;60.17;;;23.25;;
71046;SDS011;58703;48.978;8.982;2022-12-17T15:28:15;37.97;;;17.50;;
71046;SDS011;58703;48.978;8.982;2022-12-17T15:30:42;45.53;;;21.07;;
71046;SDS011;58703;48.978;8.982;2022-12-17T15:33:09;53.53;;;22.35;;
71046;SDS011;58703;48.978;8.982;2022-12-17T15:35:36;55.00;;;25.25;;
71046;SDS011;58703;48.978;8.982;2022-12-17T15:38:02;57.63;;;23.42;;
71046;SDS011;58703;48.978;8.982;2022-12-17T15:40:29;50.92;;;23.75;;
71046;SDS011;58703;48.978;8.982;2022-12-17T15:42:55;51.80;;;21.20;;
71046;SDS011;58703;48.978;8.982;2022-12-17T15:45:46;41.85;;;17.60;;
71046;SDS011;58703;48.978;8.982;2022-12-17T15:48:14;50.88;;;20.92;;
71046;SDS011;58703;48.978;8.982;2022-12-17T15:50:43;47.42;;;22.80;;
71046;SDS011;58703;48.978;8.982;2022-12-17T15:53:08;51.87;;;22.63;;
71046;SDS011;58703;48.978;8.982;2022-12-17T15:55:34;51.85;;;22.45;;
71046;SDS011;58703;48.978;8.982;2022-12-17T15:58:01;59.58;;;23.23;;
71046;SDS011;58703;48.978;8.982;2022-12-17T16:00:27;69.77;;;28.17;;
71046;SDS011;58703;48.978;8.982;2022-12-17T16:02:53;65.55;;;26.08;;
71046;SDS011;58703;48.978;8.982;2022-12-17T16:05:18;54.27;;;22.07;;
71046;SDS011;58703;48.978;8.982;2022-12-17T16:07:45;68.55;;;27.85;;
71046;SDS011;58703;48.978;8.982;2022-12-17T16:10:11;64.07;;;24.27;;
71046;SDS011;58703;48.978;8.982;2022-12-17T16:12:37;54.40;;;20.85;;
71046;SDS011;58703;48.978;8.982;2022-12-17T16:15:03;47.60;;;19.53;;
71046;SDS011;58703;48.978;8.982;2022-12-17T16:17:30;57.25;;;23.73;;
71046;SDS011;58703;48.978;8.982;2022-12-17T16:19:56;45.88;;;20.27;;
71046;SDS011;58703;48.978;8.982;2022-12-17T16:22:21;51.73;;;20.63;;
71046;SDS011;58703;48.978;8.982;2022-12-17T16:24:47;45.10;;;20.10;;
71046;SDS011;58703;48.978;8.982;2022-12-17T16:27:13;47.93;;;19.27;;
71046;SDS011;58703;48.978;8.982;2022-12-17T16:29:39;47.83;;;20.33;;
71046;SDS011;58703;48.978;8.982;2022-12-17T16:32:05;50.88;;;20.65;;
71046;SDS011;58703;48.978;8.982;2022-12-17T16:34:31;44.00;;;18.63;;
71046;SDS011;58703;48.978;8.982;2022-12-17T16:36:57;49.90;;;19.23;;
71046;SDS011;58703;48.978;8.982;2022-12-17T16:39:23;44.65;;;19.02;;
71046;SDS011;58703;48.978;8.982;2022-12-17T16:41:49;84.93;;;27.83;;
71046;SDS011;58703;48.978;8.982;2022-12-17T16:44:14;60.15;;;23.65;;
71046;SDS011;58703;48.978;8.982;2022-12-17T16:46:41;56.53;;;21.53;;
71046;SDS011;58703;48.978;8.982;2022-12-17T16:49:11;54.00;;;21.35;;
71046;SDS011;58703;48.978;8.982;2022-12-17T16:51:37;44.08;;;17.35;;
71046;SDS011;58703;48.978;8.982;2022-12-17T16:54:05;21.73;;;11.77;;
71046;SDS011;58703;48.978;8.982;2022-12-17T16:56:32;30.20;;;13.20;;